Time;durP1;ratioP1;P1;durP2;ratioP2;P2;SDS_P1;SDS_P2;PMS_P1;PMS_P2;Temp;Humidity;BMP_temperature;BMP_pressure;BME280_temperature;BME280_humidity;BME280_pressure;Samples;Min_cycle;Max_cycle;Signal;HPM_P1;HPM_P2
2023/07/28 00:02:01;;;;;;;;;;;19.60;72.70;;;;;;5077266;28;20394;-65
2023/07/28 00:04:26;;;;;;;;;;;19.60;72.70;;;;;;5077111;28;19920;-65
2023/07/28 00:06:52;;;;;;;;;;;19.60;72.70;;;;;;5077272;28;20307;-65
2023/07/28 00:09:17;;;;;;;;;;;19.60;72.70;;;;;;5077003;28;20107;-65
2023/07/28 00:11:43;;;;;;;;;;;19.60;72.70;;;;;;5076823;28;19920;-65
2023/07/28 00:14:08;;;;;;;;;;;19.60;72.70;;;;;;5077095;28;20015;-65
2023/07/28 00:16:34;;;;;;;;;;;19.60;72.70;;;;;;5094838;28;19927;-65
2023/07/28 00:18:59;;;;;;;;;;;19.60;72.70;;;;;;5076893;28;19924;-65
2023/07/28 00:21:26;;;;;;;;;;;19.60;72.70;;;;;;5094946;28;19927;-66
2023/07/28 00:23:51;;;;;;;;;;;19.60;72.80;;;;;;5094933;28;20331;-65
2023/07/28 00:26:17;;;;;;;;;;;19.60;72.80;;;;;;5094717;28;19978;-66
2023/07/28 00:28:42;;;;;;;;;;;19.60;72.80;;;;;;5076854;28;19920;-65
2023/07/28 00:31:08;;;;;;;;;;;19.60;72.80;;;;;;5077028;28;20007;-65
2023/07/28 00:33:33;;;;;;;;;;;19.60;72.80;;;;;;5076827;28;20375;-65
2023/07/28 00:35:58;;;;;;;;;;;19.60;72.80;;;;;;5076118;28;19969;-65
2023/07/28 00:38:25;;;;;;;;;;;19.60;72.90;;;;;;5075931;28;19949;-66
2023/07/28 00:40:50;;;;;;;;;;;19.60;72.90;;;;;;5094481;28;19920;-65
2023/07/28 00:43:16;;;;;;;;;;;19.60;72.90;;;;;;5094830;28;20382;-65
2023/07/28 00:45:41;;;;;;;;;;;19.60;72.90;;;;;;5076572;28;19920;-65
2023/07/28 00:48:10;;;;;;;;;;;19.60;72.90;;;;;;5094282;28;20387;-66
2023/07/28 00:50:36;;;;;;;;;;;19.60;72.90;;;;;;5076502;28;20509;-66
2023/07/28 00:53:01;;;;;;;;;;;19.60;72.90;;;;;;5076159;28;20006;-66
2023/07/28 00:55:27;;;;;;;;;;;19.60;72.90;;;;;;5076381;28;19943;-66
2023/07/28 00:57:52;;;;;;;;;;;19.60;72.90;;;;;;5075903;28;19924;-66
2023/07/28 01:00:18;;;;;;;;;;;19.60;73.00;;;;;;5075947;28;19920;-66
2023/07/28 01:02:44;;;;;;;;;;;19.60;73.00;;;;;;5075833;28;20036;-65
2023/07/28 01:05:09;;;;;;;;;;;19.60;73.00;;;;;;5076253;28;19921;-65
2023/07/28 01:07:38;;;;;;;;;;;19.60;73.00;;;;;;5075726;28;19959;-66
2023/07/28 01:12:45;;;;;;;;;;;19.60;73.00;;;;;;5130740;27;19941;-66
2023/07/28 01:15:10;;;;;;;;;;;19.60;73.00;;;;;;5129463;28;20323;-66
2023/07/28 01:17:36;;;;;;;;;;;19.60;73.00;;;;;;5129456;28;19936;-66
2023/07/28 01:20:03;;;;;;;;;;;19.60;73.00;;;;;;5129714;28;19919;-66
2023/07/28 01:28:05;;;;;;;;;;;19.60;73.10;;;;;;5110323;27;19919;-66
2023/07/28 01:30:31;;;;;;;;;;;19.60;73.10;;;;;;5109441;28;19920;-66
2023/07/28 01:32:57;;;;;;;;;;;19.60;73.00;;;;;;5109246;28;19973;-66
2023/07/28 01:35:23;;;;;;;;;;;19.60;73.00;;;;;;5108856;28;19920;-66
2023/07/28 01:37:50;;;;;;;;;;;19.60;73.00;;;;;;5110165;28;19920;-65
2023/07/28 01:40:16;;;;;;;;;;;19.60;73.10;;;;;;5108717;28;20413;-66
2023/07/28 01:42:42;;;;;;;;;;;19.60;73.00;;;;;;5108755;28;20050;-66
2023/07/28 01:45:08;;;;;;;;;;;19.60;73.10;;;;;;5108970;28;20014;-66
2023/07/28 01:47:33;;;;;;;;;;;19.60;73.10;;;;;;5108633;28;20002;-65
2023/07/28 01:49:59;;;;;;;;;;;19.60;73.10;;;;;;5108922;28;19924;-66
2023/07/28 01:52:24;;;;;;;;;;;19.60;73.10;;;;;;5109789;28;20405;-66
2023/07/28 01:54:50;;;;;;;;;;;19.60;73.10;;;;;;5108748;28;19920;-66
2023/07/28 01:57:15;;;;;;;;;;;19.60;73.10;;;;;;5108528;28;20020;-66
2023/07/28 01:59:41;;;;;;;;;;;19.60;73.10;;;;;;5108638;28;20011;-66
2023/07/28 02:02:06;;;;;;;;;;;19.60;73.10;;;;;;5108428;28;19973;-65
2023/07/28 02:04:32;;;;;;;;;;;19.60;73.10;;;;;;5108610;28;19920;-65
2023/07/28 02:06:57;;;;;;;;;;;19.60;73.20;;;;;;5108263;28;20284;-66
2023/07/28 02:09:23;;;;;;;;;;;19.60;73.10;;;;;;5109440;28;20010;-70
2023/07/28 02:11:48;;;;;;;;;;;19.60;73.20;;;;;;5109721;28;19924;-66
2023/07/28 02:14:14;;;;;;;;;;;19.60;73.20;;;;;;5108444;28;19963;-66
2023/07/28 02:16:39;;;;;;;;;;;19.60;73.20;;;;;;5108067;28;19924;-66
2023/07/28 02:19:05;;;;;;;;;;;19.60;73.20;;;;;;5108110;28;19934;-65
2023/07/28 02:21:30;;;;;;;;;;;19.60;73.20;;;;;;5108294;28;19920;-66
2023/07/28 02:23:56;;;;;;;;;;;19.60;73.20;;;;;;5109267;28;19920;-66
2023/07/28 02:26:21;;;;;;;;;;;19.60;73.20;;;;;;5115029;28;20306;-66
2023/07/28 02:28:47;;;;;;;;;;;19.60;73.20;;;;;;5129798;28;19920;-66
2023/07/28 02:31:12;;;;;;;;;;;19.60;73.20;;;;;;5111472;28;20266;-66
2023/07/28 02:33:38;;;;;;;;;;;19.60;73.20;;;;;;5111550;28;19919;-66
2023/07/28 02:36:04;;;;;;;;;;;19.60;73.20;;;;;;5129574;28;20479;-66
2023/07/28 02:38:29;;;;;;;;;;;19.60;73.30;;;;;;5120981;28;20279;-66
2023/07/28 02:40:55;;;;;;;;;;;19.60;73.30;;;;;;5115628;28;19920;-66
2023/07/28 02:43:20;;;;;;;;;;;19.60;73.20;;;;;;5097703;28;19923;-66
2023/07/28 02:45:53;;;;;;;;;;;19.60;73.30;;;;;;5115551;28;20453;-65
2023/07/28 02:48:21;;;;;;;;;;;19.60;73.30;;;;;;5097562;28;19920;-65
2023/07/28 02:50:47;;;;;;;;;;;19.60;73.30;;;;;;5097226;28;19926;-66
2023/07/28 02:53:13;;;;;;;;;;;19.60;73.30;;;;;;5097249;28;19923;-66
2023/07/28 02:55:42;;;;;;;;;;;19.60;73.30;;;;;;5097439;28;19920;-65
2023/07/28 02:58:08;;;;;;;;;;;19.60;73.30;;;;;;5097294;28;19920;-66
2023/07/28 03:00:33;;;;;;;;;;;19.60;73.30;;;;;;5097412;28;20454;-66
2023/07/28 03:02:59;;;;;;;;;;;19.60;73.30;;;;;;5096911;28;19926;-66
2023/07/28 03:05:24;;;;;;;;;;;19.60;73.30;;;;;;5097215;28;19996;-66
2023/07/28 03:07:50;;;;;;;;;;;19.60;73.30;;;;;;5096809;28;20018;-66
2023/07/28 03:10:16;;;;;;;;;;;19.60;73.30;;;;;;5096980;28;19920;-66
2023/07/28 03:12:42;;;;;;;;;;;19.60;73.30;;;;;;5097048;28;19968;-66
2023/07/28 03:15:08;;;;;;;;;;;19.60;73.30;;;;;;5096892;28;20014;-66
2023/07/28 03:17:33;;;;;;;;;;;19.60;73.30;;;;;;5115241;28;20274;-66
2023/07/28 03:19:59;;;;;;;;;;;19.60;73.30;;;;;;5097001;28;19919;-66
2023/07/28 03:22:24;;;;;;;;;;;19.60;73.30;;;;;;5096538;28;19996;-66
2023/07/28 03:24:50;;;;;;;;;;;19.60;73.30;;;;;;5096857;28;19920;-65
2023/07/28 03:27:15;;;;;;;;;;;19.60;73.30;;;;;;5092780;28;19924;-66
2023/07/28 03:29:41;;;;;;;;;;;19.60;73.30;;;;;;5093129;28;19943;-66
2023/07/28 03:32:06;;;;;;;;;;;19.60;73.40;;;;;;5093280;28;19946;-66
2023/07/28 03:34:32;;;;;;;;;;;19.60;73.30;;;;;;5094369;28;19920;-66
2023/07/28 03:36:57;;;;;;;;;;;19.60;73.40;;;;;;5094261;28;20275;-66
2023/07/28 03:39:22;;;;;;;;;;;19.60;73.30;;;;;;5092813;28;19920;-66
2023/07/28 03:41:51;;;;;;;;;;;19.60;73.30;;;;;;5094201;28;19927;-66
2023/07/28 03:44:16;;;;;;;;;;;19.60;73.40;;;;;;5093213;28;20302;-66
2023/07/28 03:46:42;;;;;;;;;;;19.60;73.30;;;;;;5093143;28;19920;-66
2023/07/28 03:49:07;;;;;;;;;;;19.60;73.40;;;;;;5092562;28;20006;-65
2023/07/28 03:51:33;;;;;;;;;;;19.60;73.40;;;;;;5092239;28;19920;-66
2023/07/28 03:53:58;;;;;;;;;;;19.60;73.30;;;;;;5093940;28;19920;-66
2023/07/28 03:56:24;;;;;;;;;;;19.60;73.30;;;;;;5092780;28;19969;-66
2023/07/28 03:58:49;;;;;;;;;;;19.60;73.40;;;;;;5092490;28;20299;-66
2023/07/28 04:01:15;;;;;;;;;;;19.60;73.40;;;;;;5092487;28;19920;-66
2023/07/28 04:03:40;;;;;;;;;;;19.60;73.40;;;;;;5093655;28;19963;-66
2023/07/28 04:06:10;;;;;;;;;;;19.60;73.40;;;;;;5093910;28;19926;-66
2023/07/28 04:08:35;;;;;;;;;;;19.60;73.40;;;;;;5092338;28;19920;-66
2023/07/28 04:11:01;;;;;;;;;;;19.60;73.40;;;;;;5092957;28;20010;-66
2023/07/28 04:13:26;;;;;;;;;;;19.60;73.40;;;;;;5093447;28;19924;-65
2023/07/28 04:15:52;;;;;;;;;;;19.60;73.40;;;;;;5092456;28;20132;-66
2023/07/28 04:18:18;;;;;;;;;;;19.60;73.40;;;;;;5093500;28;20375;-66
2023/07/28 04:20:43;;;;;;;;;;;19.60;73.40;;;;;;5093360;28;19965;-66
2023/07/28 04:23:08;;;;;;;;;;;19.60;73.40;;;;;;5092401;28;19920;-66
2023/07/28 04:25:34;;;;;;;;;;;19.60;73.40;;;;;;5092034;28;19942;-66
2023/07/28 04:27:59;;;;;;;;;;;19.60;73.50;;;;;;5091771;28;19924;-66
2023/07/28 04:30:25;;;;;;;;;;;19.60;73.50;;;;;;5092185;28;20499;-66
2023/07/28 04:32:50;;;;;;;;;;;19.60;73.50;;;;;;5091944;28;20286;-66
2023/07/28 04:35:16;;;;;;;;;;;19.60;73.50;;;;;;5091904;28;20010;-66
2023/07/28 04:37:42;;;;;;;;;;;19.60;73.50;;;;;;5091905;28;19969;-66
2023/07/28 04:40:08;;;;;;;;;;;19.60;73.50;;;;;;5091767;28;19927;-66
2023/07/28 04:42:34;;;;;;;;;;;19.60;73.50;;;;;;5092105;28;19927;-66
2023/07/28 04:45:03;;;;;;;;;;;19.60;73.50;;;;;;5091591;28;20291;-66
2023/07/28 04:47:28;;;;;;;;;;;19.60;73.50;;;;;;5091580;28;19924;-65
2023/07/28 04:49:54;;;;;;;;;;;19.60;73.60;;;;;;5092840;28;20303;-66
2023/07/28 04:52:19;;;;;;;;;;;19.60;73.50;;;;;;5092900;28;19973;-66
2023/07/28 04:54:45;;;;;;;;;;;19.60;73.60;;;;;;5091858;28;19928;-65
2023/07/28 04:57:10;;;;;;;;;;;19.60;73.60;;;;;;5091574;28;20465;-66
2023/07/28 04:59:36;;;;;;;;;;;19.60;73.60;;;;;;5091767;28;19920;-66
2023/07/28 05:02:01;;;;;;;;;;;19.60;73.60;;;;;;5091140;28;20370;-66
2023/07/28 05:04:27;;;;;;;;;;;19.60;73.60;;;;;;5092914;28;19967;-65
2023/07/28 05:06:52;;;;;;;;;;;19.60;73.60;;;;;;5091303;28;20387;-66
2023/07/28 05:09:18;;;;;;;;;;;19.60;73.60;;;;;;5091447;28;19927;-66
2023/07/28 05:11:43;;;;;;;;;;;19.60;73.60;;;;;;5091598;28;19942;-66
2023/07/28 05:14:09;;;;;;;;;;;19.60;73.60;;;;;;5091660;28;20002;-66
2023/07/28 05:16:34;;;;;;;;;;;19.60;73.60;;;;;;5092423;28;20345;-66
2023/07/28 05:19:00;;;;;;;;;;;19.60;73.60;;;;;;5092532;28;19942;-66
2023/07/28 05:21:25;;;;;;;;;;;19.60;73.60;;;;;;5091216;28;19927;-65
2023/07/28 05:23:51;;;;;;;;;;;19.60;73.70;;;;;;5091504;28;19924;-66
2023/07/28 05:26:16;;;;;;;;;;;19.60;73.70;;;;;;5090845;28;20310;-66
2023/07/28 05:28:42;;;;;;;;;;;19.60;73.70;;;;;;5091426;28;20031;-66
2023/07/28 05:31:08;;;;;;;;;;;19.60;73.70;;;;;;5092310;28;20363;-66
2023/07/28 05:33:33;;;;;;;;;;;19.60;73.80;;;;;;5091417;28;20395;-65
2023/07/28 05:36:00;;;;;;;;;;;19.60;73.70;;;;;;5092351;28;19927;-72
2023/07/28 05:38:25;;;;;;;;;;;19.60;73.70;;;;;;5091315;28;19920;-66
2023/07/28 05:41:07;;;;;;;;;;;19.60;73.70;;;;;;5092346;28;19931;-66
2023/07/28 05:43:32;;;;;;;;;;;19.60;73.80;;;;;;5091001;28;19920;-66
2023/07/28 05:46:00;;;;;;;;;;;19.60;73.80;;;;;;5091205;28;20340;-66
2023/07/28 05:48:26;;;;;;;;;;;19.60;73.70;;;;;;5090821;28;20007;-66
2023/07/28 05:50:53;;;;;;;;;;;19.60;73.80;;;;;;5091295;28;19971;-66
2023/07/28 05:53:21;;;;;;;;;;;19.60;73.80;;;;;;5092524;28;19960;-66
2023/07/28 05:55:47;;;;;;;;;;;19.60;73.80;;;;;;5091224;28;19924;-66
2023/07/28 05:58:12;;;;;;;;;;;19.60;73.80;;;;;;5092145;28;19926;-66
2023/07/28 06:00:39;;;;;;;;;;;19.60;73.80;;;;;;5090743;28;19970;-66
2023/07/28 06:03:04;;;;;;;;;;;19.60;73.80;;;;;;5092371;28;19920;-66
2023/07/28 06:05:30;;;;;;;;;;;19.60;73.80;;;;;;5090826;28;20402;-66
2023/07/28 06:07:55;;;;;;;;;;;19.60;73.80;;;;;;5090687;28;19974;-66
2023/07/28 06:10:21;;;;;;;;;;;19.60;73.80;;;;;;5091098;28;19927;-65
2023/07/28 06:12:46;;;;;;;;;;;19.60;73.80;;;;;;5092408;28;20433;-66
2023/07/28 06:15:11;;;;;;;;;;;19.60;73.80;;;;;;5094856;28;19927;-66
2023/07/28 06:17:37;;;;;;;;;;;19.60;73.80;;;;;;5094507;28;20014;-66
2023/07/28 06:20:03;;;;;;;;;;;19.60;73.90;;;;;;5095350;28;19943;-66
2023/07/28 06:22:28;;;;;;;;;;;19.60;73.80;;;;;;5094799;28;19967;-66
2023/07/28 06:24:53;;;;;;;;;;;19.60;73.90;;;;;;5095680;28;19927;-66
2023/07/28 06:27:19;;;;;;;;;;;19.60;73.90;;;;;;5094029;28;19931;-66
2023/07/28 06:29:44;;;;;;;;;;;19.60;73.80;;;;;;5095551;28;19924;-66
2023/07/28 06:32:10;;;;;;;;;;;19.60;73.90;;;;;;5094263;28;19999;-65
2023/07/28 06:34:36;;;;;;;;;;;19.60;73.90;;;;;;5094508;28;20019;-66
2023/07/28 06:37:02;;;;;;;;;;;19.60;73.90;;;;;;5094508;28;19920;-66
2023/07/28 06:39:29;;;;;;;;;;;19.60;73.90;;;;;;5094053;28;20323;-66
2023/07/28 06:41:55;;;;;;;;;;;19.60;73.80;;;;;;5094394;28;19926;-65
2023/07/28 06:44:20;;;;;;;;;;;19.60;74.00;;;;;;5094004;28;20380;-65
2023/07/28 06:46:47;;;;;;;;;;;19.60;73.90;;;;;;5094091;28;20273;-66
2023/07/28 06:49:13;;;;;;;;;;;19.60;73.70;;;;;;5094215;28;19920;-66
2023/07/28 06:51:38;;;;;;;;;;;19.60;73.70;;;;;;5094304;28;19942;-66
2023/07/28 06:54:04;;;;;;;;;;;19.60;73.70;;;;;;5094218;28;19920;-66
2023/07/28 06:56:29;;;;;;;;;;;19.60;73.80;;;;;;5093849;28;20413;-65
2023/07/28 06:58:55;;;;;;;;;;;19.60;74.00;;;;;;5094024;28;19920;-66
2023/07/28 07:01:21;;;;;;;;;;;19.60;74.20;;;;;;5094934;28;19920;-66
2023/07/28 07:03:47;;;;;;;;;;;19.60;74.10;;;;;;5095185;28;20375;-66
2023/07/28 07:06:12;;;;;;;;;;;19.60;74.00;;;;;;5093507;28;19925;-66
2023/07/28 07:08:38;;;;;;;;;;;19.60;74.10;;;;;;5093929;28;19920;-66
2023/07/28 07:11:05;;;;;;;;;;;19.60;74.10;;;;;;5093635;28;20073;-66
2023/07/28 07:13:31;;;;;;;;;;;19.60;74.00;;;;;;5093782;28;19927;-66
2023/07/28 07:15:57;;;;;;;;;;;19.60;74.10;;;;;;5093380;28;20019;-66
2023/07/28 07:18:22;;;;;;;;;;;19.60;74.10;;;;;;5093680;28;20003;-71
2023/07/28 07:20:48;;;;;;;;;;;19.60;74.10;;;;;;5093661;28;20019;-66
2023/07/28 07:23:13;;;;;;;;;;;19.60;74.10;;;;;;5093305;28;20271;-66
2023/07/28 07:25:39;;;;;;;;;;;19.60;74.00;;;;;;5094525;28;19924;-66
2023/07/28 07:28:04;;;;;;;;;;;19.60;74.00;;;;;;5096471;28;19931;-66
2023/07/28 07:30:32;;;;;;;;;;;19.60;74.00;;;;;;5114756;28;19919;-66
2023/07/28 07:32:58;;;;;;;;;;;19.60;74.00;;;;;;5114750;28;19966;-65
2023/07/28 07:35:23;;;;;;;;;;;19.60;74.00;;;;;;5096404;28;20410;-66
2023/07/28 07:37:49;;;;;;;;;;;19.60;74.10;;;;;;5114937;28;20019;-66
2023/07/28 07:40:14;;;;;;;;;;;19.60;74.00;;;;;;5096636;28;20313;-66
2023/07/28 07:42:42;;;;;;;;;;;19.60;74.00;;;;;;5096643;28;19919;-66
2023/07/28 07:45:09;;;;;;;;;;;19.60;74.00;;;;;;5096348;28;20343;-66
2023/07/28 07:47:34;;;;;;;;;;;19.70;74.00;;;;;;5096059;28;20370;-66
2023/07/28 07:50:00;;;;;;;;;;;19.70;74.00;;;;;;5096708;28;19926;-66
2023/07/28 07:52:26;;;;;;;;;;;19.60;74.00;;;;;;5114498;28;19923;-65
2023/07/28 07:54:51;;;;;;;;;;;19.70;74.00;;;;;;5096463;28;20011;-66
2023/07/28 07:57:17;;;;;;;;;;;19.60;74.00;;;;;;5114232;28;19924;-66
2023/07/28 07:59:43;;;;;;;;;;;19.70;74.00;;;;;;5114237;28;20158;-66
2023/07/28 08:02:08;;;;;;;;;;;19.70;74.00;;;;;;5096262;28;19920;-66
2023/07/28 08:04:34;;;;;;;;;;;19.60;74.00;;;;;;5114089;28;19920;-66
2023/07/28 08:06:59;;;;;;;;;;;19.60;73.90;;;;;;5095755;28;19924;-66
2023/07/28 08:09:25;;;;;;;;;;;19.60;73.90;;;;;;5114047;28;19920;-66
2023/07/28 08:11:51;;;;;;;;;;;19.70;74.00;;;;;;5096030;28;19924;-65
2023/07/28 08:14:16;;;;;;;;;;;19.60;74.00;;;;;;5095760;28;20378;-66
2023/07/28 08:16:42;;;;;;;;;;;19.70;74.00;;;;;;5095514;28;19999;-66
2023/07/28 08:19:07;;;;;;;;;;;19.70;74.00;;;;;;5095884;28;19924;-66
2023/07/28 08:21:36;;;;;;;;;;;19.70;74.20;;;;;;5095546;28;19927;-66
2023/07/28 08:24:03;;;;;;;;;;;19.70;74.10;;;;;;5114073;28;20006;-65
2023/07/28 08:26:29;;;;;;;;;;;19.70;74.20;;;;;;5113452;28;19924;-65
2023/07/28 08:28:54;;;;;;;;;;;19.70;74.10;;;;;;5095362;28;19920;-65
2023/07/28 08:31:20;;;;;;;;;;;19.70;74.10;;;;;;5113643;28;20351;-66
2023/07/28 08:33:45;;;;;;;;;;;19.70;74.00;;;;;;5095527;28;19920;-65
2023/07/28 08:36:11;;;;;;;;;;;19.70;74.10;;;;;;5095068;28;20395;-66
2023/07/28 08:38:36;;;;;;;;;;;19.70;73.90;;;;;;5113630;28;19968;-66
2023/07/28 08:41:02;;;;;;;;;;;19.70;74.00;;;;;;5095280;28;19927;-66
2023/07/28 08:43:28;;;;;;;;;;;19.70;74.00;;;;;;5095086;28;19920;-66
2023/07/28 08:45:54;;;;;;;;;;;19.70;74.00;;;;;;5095372;28;19920;-66
2023/07/28 08:48:20;;;;;;;;;;;19.70;74.10;;;;;;5113754;28;19919;-65
2023/07/28 08:50:46;;;;;;;;;;;19.70;74.00;;;;;;5095018;28;20389;-66
2023/07/28 08:53:12;;;;;;;;;;;19.70;74.00;;;;;;5095232;28;20370;-66
2023/07/28 08:55:37;;;;;;;;;;;19.70;73.90;;;;;;5113272;28;20022;-66
2023/07/28 08:58:19;;;;;;;;;;;19.70;74.10;;;;;;5095257;28;20287;-65
2023/07/28 09:00:48;;;;;;;;;;;19.70;74.10;;;;;;5094921;28;19920;-66
2023/07/28 09:03:14;;;;;;;;;;;19.70;74.00;;;;;;5095034;28;19919;-66
2023/07/28 09:05:40;;;;;;;;;;;19.70;74.00;;;;;;5094793;28;19973;-66
2023/07/28 09:08:07;;;;;;;;;;;19.70;74.00;;;;;;5094642;28;19924;-66
2023/07/28 09:10:48;;;;;;;;;;;19.70;74.20;;;;;;5095107;28;19942;-65
2023/07/28 09:13:15;;;;;;;;;;;19.70;74.10;;;;;;5095000;28;20328;-66
2023/07/28 09:15:40;;;;;;;;;;;19.70;73.80;;;;;;5095024;28;20382;-65
2023/07/28 09:18:07;;;;;;;;;;;19.70;73.90;;;;;;5112873;28;19924;-66
2023/07/28 09:20:35;;;;;;;;;;;19.70;73.90;;;;;;5094603;28;19955;-65
2023/07/28 09:23:01;;;;;;;;;;;19.70;73.80;;;;;;5113050;28;19973;-66
2023/07/28 09:25:28;;;;;;;;;;;19.70;73.90;;;;;;5094781;28;19920;-66
2023/07/28 09:27:53;;;;;;;;;;;19.70;73.90;;;;;;5094423;28;19973;-66
2023/07/28 09:30:19;;;;;;;;;;;19.70;73.90;;;;;;5112698;28;19919;-65
2023/07/28 09:32:46;;;;;;;;;;;19.70;73.80;;;;;;5112773;28;19920;-66
2023/07/28 09:35:13;;;;;;;;;;;19.70;74.00;;;;;;5094475;28;19919;-66
2023/07/28 09:37:39;;;;;;;;;;;19.70;73.80;;;;;;5112743;28;20291;-66
2023/07/28 09:40:11;;;;;;;;;;;19.70;73.80;;;;;;5094684;28;20423;-66
2023/07/28 09:42:37;;;;;;;;;;;19.80;73.80;;;;;;5094832;28;19962;-66
2023/07/28 09:45:05;;;;;;;;;;;19.70;73.80;;;;;;5094356;28;19920;-66
2023/07/28 09:47:32;;;;;;;;;;;19.80;73.70;;;;;;5094342;28;19924;-66
2023/07/28 09:49:59;;;;;;;;;;;19.80;73.80;;;;;;5116732;28;19919;-66
2023/07/28 09:52:26;;;;;;;;;;;19.80;73.70;;;;;;5116901;28;20023;-66
2023/07/28 09:54:54;;;;;;;;;;;19.80;73.70;;;;;;5098475;28;19958;-66
2023/07/28 09:57:20;;;;;;;;;;;19.80;73.80;;;;;;5098358;28;20371;-66
2023/07/28 09:59:47;;;;;;;;;;;19.80;73.60;;;;;;5116497;28;19923;-66
2023/07/28 10:02:13;;;;;;;;;;;19.80;73.70;;;;;;5098488;28;20399;-66
2023/07/28 10:04:39;;;;;;;;;;;19.80;73.60;;;;;;5116827;28;19920;-66
2023/07/28 10:07:05;;;;;;;;;;;19.80;73.90;;;;;;5098102;28;20395;-66
2023/07/28 10:09:33;;;;;;;;;;;19.80;73.70;;;;;;5116430;28;20325;-66
2023/07/28 10:11:59;;;;;;;;;;;19.80;73.80;;;;;;5098339;28;19967;-66
2023/07/28 10:14:26;;;;;;;;;;;19.80;73.80;;;;;;5098026;28;19970;-66
2023/07/28 10:16:51;;;;;;;;;;;19.80;73.80;;;;;;5115959;28;20432;-66
2023/07/28 10:19:19;;;;;;;;;;;19.80;73.70;;;;;;5097811;28;19968;-66
2023/07/28 10:21:45;;;;;;;;;;;19.80;73.80;;;;;;5098135;28;19963;-66
2023/07/28 10:24:11;;;;;;;;;;;19.80;73.70;;;;;;5098221;28;19961;-65
2023/07/28 10:26:38;;;;;;;;;;;19.80;73.90;;;;;;5097694;28;19931;-66
2023/07/28 10:29:07;;;;;;;;;;;19.80;73.80;;;;;;5116123;28;19919;-66
2023/07/28 10:31:33;;;;;;;;;;;19.90;73.80;;;;;;5115842;28;19955;-66
2023/07/28 10:34:02;;;;;;;;;;;19.80;73.80;;;;;;5097977;28;19966;-66
2023/07/28 10:39:17;;;;;;;;;;;19.80;73.70;;;;;;5130770;27;19911;-66
2023/07/28 10:42:03;;;;;;;;;;;19.80;73.70;;;;;;5129428;28;19969;-66
2023/07/28 10:44:28;;;;;;;;;;;19.80;73.80;;;;;;5129613;28;19941;-66
2023/07/28 10:46:54;;;;;;;;;;;19.80;73.60;;;;;;5129455;28;19920;-66
2023/07/28 10:49:20;;;;;;;;;;;19.80;73.80;;;;;;5130586;27;19923;-66
2023/07/28 10:51:46;;;;;;;;;;;19.80;73.80;;;;;;5129475;28;19965;-65
2023/07/28 10:54:15;;;;;;;;;;;19.80;73.80;;;;;;5129602;28;20324;-66
2023/07/28 10:56:41;;;;;;;;;;;19.80;73.80;;;;;;5129302;28;20040;-67
2023/07/28 10:59:06;;;;;;;;;;;19.80;73.90;;;;;;5129458;28;20024;-72
2023/07/28 11:01:34;;;;;;;;;;;19.80;73.90;;;;;;5129402;28;19920;-66
2023/07/28 11:06:48;;;;;;;;;;;19.80;73.70;;;;;;5090024;28;20264;-65
2023/07/28 11:09:15;;;;;;;;;;;19.90;73.90;;;;;;5088547;28;20372;-66
2023/07/28 11:11:41;;;;;;;;;;;19.80;74.00;;;;;;5088940;28;19921;-66
2023/07/28 11:14:08;;;;;;;;;;;19.90;73.80;;;;;;5088499;28;19922;-66
2023/07/28 11:16:34;;;;;;;;;;;19.80;74.00;;;;;;5089790;28;19920;-66
2023/07/28 11:19:01;;;;;;;;;;;19.80;73.90;;;;;;5088645;28;19920;-65
2023/07/28 11:21:26;;;;;;;;;;;19.90;73.90;;;;;;5088401;28;19920;-66
2023/07/28 11:23:51;;;;;;;;;;;19.90;74.00;;;;;;5089543;28;19958;-65
2023/07/28 11:26:17;;;;;;;;;;;19.90;73.90;;;;;;5088263;28;19928;-66
2023/07/28 11:28:43;;;;;;;;;;;19.80;74.10;;;;;;5088449;28;19920;-66
2023/07/28 11:31:09;;;;;;;;;;;19.90;74.10;;;;;;5087574;28;19974;-65
2023/07/28 11:33:35;;;;;;;;;;;19.90;74.10;;;;;;5088225;28;19975;-66
2023/07/28 11:36:00;;;;;;;;;;;19.90;74.10;;;;;;5088155;28;19987;-66
2023/07/28 11:38:26;;;;;;;;;;;19.90;74.10;;;;;;5088326;28;20062;-67
2023/07/28 11:40:53;;;;;;;;;;;19.90;74.10;;;;;;5087979;28;19971;-66
2023/07/28 11:43:18;;;;;;;;;;;19.90;74.10;;;;;;5089205;28;19924;-65
2023/07/28 11:45:44;;;;;;;;;;;19.90;74.30;;;;;;5089296;28;19947;-66
2023/07/28 11:48:09;;;;;;;;;;;19.90;74.00;;;;;;5087865;28;19920;-72
2023/07/28 11:50:37;;;;;;;;;;;19.90;74.00;;;;;;5088045;28;19927;-67
2023/07/28 11:53:03;;;;;;;;;;;19.90;74.10;;;;;;5087807;28;19927;-66
2023/07/28 11:55:29;;;;;;;;;;;19.90;74.10;;;;;;5088886;28;20326;-66
2023/07/28 11:57:54;;;;;;;;;;;19.90;74.10;;;;;;5088010;28;19974;-66
2023/07/28 12:00:37;;;;;;;;;;;19.90;74.10;;;;;;5087565;28;19973;-66
2023/07/28 12:03:11;;;;;;;;;;;19.90;74.10;;;;;;5088968;28;19921;-66
2023/07/28 12:05:39;;;;;;;;;;;19.90;74.10;;;;;;5087302;28;19975;-66
2023/07/28 12:08:05;;;;;;;;;;;19.90;74.10;;;;;;5088670;28;19920;-66
2023/07/28 12:10:32;;;;;;;;;;;19.90;74.00;;;;;;5087918;28;20257;-66
2023/07/28 12:13:03;;;;;;;;;;;19.90;74.10;;;;;;5087364;28;19925;-71
2023/07/28 12:15:30;;;;;;;;;;;19.90;74.10;;;;;;5087689;28;20383;-66
2023/07/28 12:20:53;;;;;;;;;;;19.90;74.10;;;;;;5110272;27;20268;-66
2023/07/28 12:23:20;;;;;;;;;;;19.90;74.00;;;;;;5108909;28;19920;-66
2023/07/28 12:25:46;;;;;;;;;;;19.90;74.10;;;;;;5092196;28;20386;-66
2023/07/28 12:28:12;;;;;;;;;;;19.90;74.00;;;;;;5091924;28;19967;-66
2023/07/28 12:30:38;;;;;;;;;;;19.90;74.00;;;;;;5092177;28;19942;-66
2023/07/28 12:33:04;;;;;;;;;;;19.90;74.00;;;;;;5092135;28;20291;-66
2023/07/28 12:35:33;;;;;;;;;;;19.90;74.00;;;;;;5091652;28;19924;-66
2023/07/28 12:38:00;;;;;;;;;;;20.00;74.10;;;;;;5092055;28;20003;-66
2023/07/28 12:40:26;;;;;;;;;;;19.90;74.00;;;;;;5091691;28;19930;-72
2023/07/28 12:42:51;;;;;;;;;;;19.90;74.00;;;;;;5091924;28;19919;-66
2023/07/28 12:45:17;;;;;;;;;;;20.00;74.10;;;;;;5109882;28;20402;-66
2023/07/28 12:47:43;;;;;;;;;;;19.90;74.00;;;;;;5109842;28;19926;-66
2023/07/28 12:50:09;;;;;;;;;;;20.00;74.10;;;;;;5091769;28;20375;-66
2023/07/28 12:52:36;;;;;;;;;;;20.00;74.00;;;;;;5109593;28;19919;-66
2023/07/28 12:55:01;;;;;;;;;;;20.00;73.90;;;;;;5091818;28;19927;-66
2023/07/28 12:57:27;;;;;;;;;;;20.00;74.10;;;;;;5109544;28;19920;-65
2023/07/28 12:59:52;;;;;;;;;;;20.00;74.00;;;;;;5109645;28;19928;-66
2023/07/28 13:02:18;;;;;;;;;;;20.00;73.90;;;;;;5091513;28;19924;-66
2023/07/28 13:04:43;;;;;;;;;;;20.00;74.10;;;;;;5091160;28;19967;-66
2023/07/28 13:07:09;;;;;;;;;;;20.00;73.90;;;;;;5091624;28;19943;-65
2023/07/28 13:09:34;;;;;;;;;;;20.00;74.00;;;;;;5091157;28;19919;-66
2023/07/28 13:12:00;;;;;;;;;;;20.00;73.90;;;;;;5091005;28;19920;-65
2023/07/28 13:14:25;;;;;;;;;;;20.00;73.90;;;;;;5109249;28;19989;-66
2023/07/28 13:16:51;;;;;;;;;;;20.00;73.90;;;;;;5109231;28;19971;-66
2023/07/28 13:19:16;;;;;;;;;;;20.00;73.90;;;;;;5090862;28;19958;-65
2023/07/28 13:21:42;;;;;;;;;;;20.00;73.90;;;;;;5108990;28;19927;-65
2023/07/28 13:24:07;;;;;;;;;;;20.00;73.90;;;;;;5109222;28;19924;-65
2023/07/28 13:26:33;;;;;;;;;;;20.00;73.90;;;;;;5091030;28;20303;-66
2023/07/28 13:29:01;;;;;;;;;;;20.10;74.00;;;;;;5108978;28;19927;-65
2023/07/28 13:31:27;;;;;;;;;;;20.10;73.90;;;;;;5099588;28;19920;-66
2023/07/28 13:33:52;;;;;;;;;;;20.00;73.90;;;;;;5095356;28;19927;-66
2023/07/28 13:36:18;;;;;;;;;;;20.00;73.80;;;;;;5095232;28;20417;-65
2023/07/28 13:38:43;;;;;;;;;;;20.10;73.90;;;;;;5095065;28;19924;-65
2023/07/28 13:41:09;;;;;;;;;;;20.00;73.80;;;;;;5077406;28;19920;-65
2023/07/28 13:43:36;;;;;;;;;;;20.10;73.80;;;;;;5077389;28;19920;-66
2023/07/28 13:46:02;;;;;;;;;;;20.10;73.90;;;;;;5077390;28;20295;-65
2023/07/28 13:48:27;;;;;;;;;;;20.10;74.00;;;;;;5095021;28;19920;-65
2023/07/28 13:50:53;;;;;;;;;;;20.10;74.00;;;;;;5077085;28;19924;-65
2023/07/28 13:53:18;;;;;;;;;;;20.10;73.80;;;;;;5095106;28;19926;-65
2023/07/28 13:55:44;;;;;;;;;;;20.10;73.70;;;;;;5076864;28;19920;-65
2023/07/28 13:58:10;;;;;;;;;;;20.10;73.80;;;;;;5076964;28;19928;-65
2023/07/28 14:00:35;;;;;;;;;;;20.10;73.80;;;;;;5094732;28;19928;-65
2023/07/28 14:03:01;;;;;;;;;;;20.10;73.80;;;;;;5076836;28;19924;-65
2023/07/28 14:05:27;;;;;;;;;;;20.10;73.80;;;;;;5076906;28;20029;-65
2023/07/28 14:07:52;;;;;;;;;;;20.10;73.70;;;;;;5094516;28;20015;-65
2023/07/28 14:10:18;;;;;;;;;;;20.20;73.80;;;;;;5094821;28;19920;-65
2023/07/28 14:12:43;;;;;;;;;;;20.10;73.80;;;;;;5094697;28;19931;-66
2023/07/28 14:15:09;;;;;;;;;;;20.10;73.70;;;;;;5094507;28;19920;-66
2023/07/28 14:17:34;;;;;;;;;;;20.10;73.80;;;;;;5076712;28;19924;-65
2023/07/28 14:20:00;;;;;;;;;;;20.10;73.70;;;;;;5094154;28;20286;-65
2023/07/28 14:22:25;;;;;;;;;;;20.20;73.80;;;;;;5059547;28;20286;-65
2023/07/28 14:24:51;;;;;;;;;;;20.20;73.70;;;;;;5094217;28;19920;-65
2023/07/28 14:27:16;;;;;;;;;;;20.20;73.80;;;;;;5076531;28;19920;-65